Terminal Aerodrome Forecast
Issued by NWS Pittsburgh, PA

Current Version | Previous Version | Graphics & Text | Print | Product List | Glossary On
Versions: 1 2 3 4 5 6 7 8 9 10 11 12 13 14 15 16 17 18 19 20 21 22 23 24 25 26 27 28 29 30
000
FTUS41 KPBZ 240300 AAA
TAFPIT
TAF AMD
KPIT 240305Z 2403/2506 14008KT 6SM -RA BKN050
     FM240500 16012KT 5SM -RA OVC015
      TEMPO 2406/2409 2SM -RA BR OVC008
     FM241100 17013KT P6SM OVC025
     FM241500 19018G38KT P6SM BKN050=

USA.gov is the U.S. government's official web portal to all federal, state and local government web resources and services.